createdAt,value
2019-05-25T00:01:56.605Z,17.10
2019-05-25T00:05:01.816Z,17.10
2019-05-25T00:08:06.876Z,17.00
2019-05-25T00:11:12.185Z,16.90
2019-05-25T00:14:18.781Z,16.80
2019-05-25T00:17:24.033Z,16.70
2019-05-25T00:20:29.128Z,16.70
2019-05-25T00:23:34.258Z,16.70
2019-05-25T00:26:39.247Z,16.60
2019-05-25T00:29:44.197Z,16.50
2019-05-25T00:32:49.240Z,16.40
2019-05-25T00:35:54.289Z,16.30
2019-05-25T00:38:59.239Z,16.30
2019-05-25T00:42:04.356Z,16.20
2019-05-25T00:45:09.663Z,16.20
2019-05-25T00:48:14.826Z,16.20
2019-05-25T00:51:20.098Z,16.10
2019-05-25T00:54:27.930Z,16.00
2019-05-25T00:57:32.088Z,16.00
2019-05-25T01:00:37.467Z,15.90
2019-05-25T01:03:42.538Z,15.90
2019-05-25T01:06:47.965Z,15.70
2019-05-25T01:09:52.854Z,15.70
2019-05-25T01:12:58.091Z,15.70
2019-05-25T01:16:03.069Z,15.60
2019-05-25T01:19:08.194Z,15.50
2019-05-25T01:22:13.148Z,15.50
2019-05-25T01:25:18.734Z,15.50
2019-05-25T01:28:23.678Z,15.40
2019-05-25T01:31:28.756Z,15.40
2019-05-25T01:34:38.703Z,15.30
2019-05-25T01:37:44.059Z,15.30
2019-05-25T01:40:51.746Z,15.20
2019-05-25T01:43:57.018Z,15.20
2019-05-25T01:47:02.094Z,15.20
2019-05-25T01:50:25.934Z,15.10
2019-05-25T01:53:31.250Z,15.10
2019-05-25T01:56:36.637Z,15.10
2019-05-25T01:59:41.605Z,15.00
2019-05-25T02:02:46.629Z,15.00
2019-05-25T02:05:51.792Z,14.90
2019-05-25T02:08:57.020Z,14.90
2019-05-25T02:12:02.374Z,15.00
2019-05-25T02:15:08.168Z,15.00
2019-05-25T02:18:13.216Z,14.90
2019-05-25T02:21:18.197Z,14.90
2019-05-25T02:24:23.221Z,14.80
2019-05-25T02:27:28.236Z,14.80
2019-05-25T02:30:33.513Z,14.70
2019-05-25T02:33:38.432Z,14.70
2019-05-25T02:36:43.507Z,14.70
2019-05-25T02:39:48.686Z,14.60
2019-05-25T02:42:54.468Z,14.50
2019-05-25T02:45:59.789Z,14.50
2019-05-25T02:49:05.103Z,14.40
2019-05-25T02:52:10.679Z,14.40
2019-05-25T02:55:24.853Z,14.40
2019-05-25T02:58:22.545Z,14.40
2019-05-25T03:01:27.509Z,14.30
2019-05-25T03:04:32.634Z,14.30
2019-05-25T03:07:38.920Z,14.30
2019-05-25T03:10:44.831Z,14.30
2019-05-25T03:13:50.764Z,14.30
2019-05-25T03:16:55.890Z,14.30
2019-05-25T03:20:01.164Z,14.30
2019-05-25T03:23:06.234Z,14.30
2019-05-25T03:26:11.040Z,14.20
2019-05-25T03:29:15.882Z,14.20
2019-05-25T03:32:20.819Z,14.10
2019-05-25T03:35:26.005Z,14.10
2019-05-25T03:38:30.916Z,14.10
2019-05-25T03:41:36.533Z,14.10
2019-05-25T03:44:41.608Z,14.10
2019-05-25T03:47:46.678Z,13.90
2019-05-25T03:50:51.643Z,13.90
2019-05-25T03:53:58.177Z,13.90
2019-05-25T03:57:03.691Z,13.90
2019-05-25T04:00:09.235Z,13.90
2019-05-25T04:03:14.347Z,14.00
2019-05-25T04:06:19.402Z,14.00
2019-05-25T04:09:24.563Z,14.00
2019-05-25T04:12:29.534Z,14.10
2019-05-25T04:15:34.662Z,14.20
2019-05-25T04:18:39.685Z,14.30
2019-05-25T04:21:44.594Z,14.40
2019-05-25T04:24:49.801Z,14.50
2019-05-25T04:27:54.954Z,14.60
2019-05-25T04:31:00.644Z,14.70
2019-05-25T04:34:05.799Z,14.90
2019-05-25T04:37:10.901Z,15.00
2019-05-25T04:40:16.617Z,15.20
2019-05-25T04:43:21.695Z,15.30
2019-05-25T04:46:27.945Z,15.50
2019-05-25T04:49:33.168Z,15.70
2019-05-25T04:52:41.087Z,15.90
2019-05-25T04:55:45.301Z,16.00
2019-05-25T04:58:50.245Z,16.10
2019-05-25T05:01:55.786Z,16.30
2019-05-25T05:05:00.605Z,16.50
2019-05-25T05:08:05.550Z,16.60
2019-05-25T05:11:10.785Z,16.80
2019-05-25T05:14:15.938Z,17.00
2019-05-25T05:17:22.410Z,17.10
2019-05-25T05:20:27.461Z,17.20
2019-05-25T05:23:32.383Z,17.20
2019-05-25T05:26:37.338Z,17.30
2019-05-25T05:29:42.458Z,17.30
2019-05-25T05:32:47.422Z,17.40
2019-05-25T05:35:53.012Z,17.50
2019-05-25T05:38:59.565Z,17.70
2019-05-25T05:42:07.524Z,17.90
2019-05-25T05:45:13.152Z,18.00
2019-05-25T05:48:21.209Z,18.10
2019-05-25T05:51:27.749Z,18.40
2019-05-25T05:54:34.044Z,18.70
2019-05-25T05:57:39.204Z,19.00
2019-05-25T06:00:45.349Z,19.40
2019-05-25T06:03:52.906Z,19.90
2019-05-25T06:06:57.680Z,20.50
2019-05-25T06:10:02.514Z,20.90
2019-05-25T06:13:07.253Z,21.50
2019-05-25T06:16:12.296Z,22.10
2019-05-25T06:19:17.159Z,22.70
2019-05-25T06:22:22.137Z,23.00
2019-05-25T06:25:27.409Z,23.40
2019-05-25T06:28:32.908Z,24.00
2019-05-25T06:31:38.378Z,24.00
2019-05-25T06:34:43.545Z,24.20
2019-05-25T06:37:48.586Z,24.70
2019-05-25T06:40:53.756Z,25.20
2019-05-25T06:43:58.996Z,25.80
2019-05-25T06:47:04.360Z,26.40
2019-05-25T06:50:09.758Z,26.60
2019-05-25T06:53:16.370Z,27.40
2019-05-25T06:56:21.866Z,28.30
2019-05-25T06:59:26.610Z,29.20
2019-05-25T07:02:31.786Z,30.00
2019-05-25T07:05:36.700Z,30.90
2019-05-25T07:08:41.549Z,31.80
2019-05-25T07:11:46.245Z,32.30
2019-05-25T07:14:51.185Z,32.50
2019-05-25T07:17:55.976Z,32.60
2019-05-25T07:21:00.735Z,32.60
2019-05-25T07:24:05.717Z,33.00
2019-05-25T07:27:10.943Z,33.70
2019-05-25T07:30:15.973Z,34.40
2019-05-25T07:33:20.719Z,35.30
2019-05-25T07:36:25.622Z,36.00
2019-05-25T07:39:30.822Z,36.20
2019-05-25T07:42:35.831Z,36.40
2019-05-25T07:45:40.867Z,36.30
2019-05-25T07:48:45.599Z,36.40
2019-05-25T07:51:50.462Z,36.50
2019-05-25T07:54:55.238Z,36.00
2019-05-25T07:58:15.643Z,36.20
2019-05-25T08:01:06.462Z,36.30
2019-05-25T08:04:11.172Z,35.80
2019-05-25T08:07:15.979Z,34.90
2019-05-25T08:10:20.719Z,34.40
2019-05-25T08:13:25.496Z,33.70
2019-05-25T08:16:30.592Z,33.10
2019-05-25T08:19:35.433Z,32.70
2019-05-25T08:22:40.175Z,31.90
2019-05-25T08:25:45.089Z,31.50
2019-05-25T08:28:50.150Z,31.10
2019-05-25T08:31:55.472Z,30.70
2019-05-25T08:35:00.824Z,30.30
2019-05-25T08:38:05.902Z,29.90
2019-05-25T08:41:11.010Z,29.70
2019-05-25T08:44:15.743Z,29.20
2019-05-25T08:47:20.751Z,29.10
2019-05-25T08:50:37.712Z,29.20
2019-05-25T08:53:41.071Z,29.10
2019-05-25T08:56:39.064Z,28.90
2019-05-25T08:59:44.153Z,28.80
2019-05-25T09:03:07.943Z,28.50
2019-05-25T09:06:12.668Z,28.60
2019-05-25T09:09:17.404Z,28.70
2019-05-25T09:12:22.142Z,28.70
2019-05-25T09:15:26.848Z,28.70
2019-05-25T09:18:31.901Z,28.70
2019-05-25T09:21:36.640Z,28.40
2019-05-25T09:24:41.368Z,28.40
2019-05-25T09:27:46.069Z,28.40
2019-05-25T09:30:51.145Z,28.40
2019-05-25T09:33:55.815Z,28.50
2019-05-25T09:37:00.689Z,28.50
2019-05-25T09:40:06.768Z,28.50
2019-05-25T09:43:13.108Z,28.50
2019-05-25T09:46:17.798Z,28.40
2019-05-25T09:49:22.609Z,28.40
2019-05-25T09:52:27.313Z,28.40
2019-05-25T09:55:32.323Z,28.40
2019-05-25T09:58:37.220Z,28.50
2019-05-25T10:01:42.192Z,28.60
2019-05-25T10:04:46.907Z,28.60
2019-05-25T10:07:51.771Z,28.80
2019-05-25T10:10:56.484Z,28.70
2019-05-25T10:14:01.372Z,28.40
2019-05-25T10:17:06.049Z,28.40
2019-05-25T10:20:11.701Z,28.50
2019-05-25T10:23:16.482Z,28.60
2019-05-25T10:26:22.973Z,28.50
2019-05-25T10:29:36.561Z,28.10
2019-05-25T10:32:34.194Z,28.20
2019-05-25T10:35:39.157Z,28.00
2019-05-25T10:38:44.280Z,28.20
2019-05-25T10:41:51.299Z,28.20
2019-05-25T10:44:56.546Z,28.40
2019-05-25T10:48:01.567Z,28.60
2019-05-25T10:51:06.649Z,28.90
2019-05-25T10:54:12.070Z,28.80
2019-05-25T10:57:17.096Z,28.90
2019-05-25T11:00:22.368Z,29.20
2019-05-25T11:03:27.409Z,29.00
2019-05-25T11:06:34.790Z,28.70
2019-05-25T11:09:39.558Z,28.40
2019-05-25T11:12:44.462Z,28.40
2019-05-25T11:15:49.455Z,28.50
2019-05-25T11:18:54.590Z,28.60
2019-05-25T11:21:59.513Z,28.70
2019-05-25T11:25:06.530Z,28.70
2019-05-25T11:28:11.649Z,28.30
2019-05-25T11:31:16.657Z,27.90
2019-05-25T11:34:22.070Z,27.70
2019-05-25T11:37:27.120Z,27.80
2019-05-25T11:40:32.208Z,27.80
2019-05-25T11:43:37.122Z,28.00
2019-05-25T11:46:42.113Z,27.90
2019-05-25T11:49:47.233Z,27.90
2019-05-25T11:52:52.387Z,27.90
2019-05-25T11:55:57.522Z,27.80
2019-05-25T11:59:02.442Z,27.90
2019-05-25T12:02:07.898Z,28.30
2019-05-25T12:05:14.526Z,28.60
2019-05-25T12:08:19.402Z,28.70
2019-05-25T12:11:24.138Z,28.80
2019-05-25T12:14:28.916Z,28.80
2019-05-25T12:17:33.693Z,28.90
2019-05-25T12:20:38.487Z,29.00
2019-05-25T12:23:43.562Z,28.90
2019-05-25T12:26:48.494Z,29.00
2019-05-25T12:29:53.259Z,29.10
2019-05-25T12:32:59.241Z,29.20
2019-05-25T12:36:04.966Z,28.70
2019-05-25T12:39:09.897Z,28.20
2019-05-25T12:42:14.836Z,27.80
2019-05-25T12:45:20.165Z,27.50
2019-05-25T12:48:25.185Z,27.40
2019-05-25T12:51:30.178Z,27.40
2019-05-25T12:54:35.419Z,27.70
2019-05-25T12:57:40.171Z,27.90
2019-05-25T13:00:55.729Z,27.90
2019-05-25T13:03:51.383Z,27.80
2019-05-25T13:06:56.302Z,27.80
2019-05-25T13:10:01.333Z,28.00
2019-05-25T13:13:06.501Z,28.30
2019-05-25T13:16:11.552Z,28.20
2019-05-25T13:19:17.061Z,28.30
2019-05-25T13:22:22.211Z,28.50
2019-05-25T13:25:27.362Z,28.60
2019-05-25T13:28:36.027Z,28.40
2019-05-25T13:31:41.676Z,28.50
2019-05-25T13:34:46.998Z,28.10
2019-05-25T13:37:52.412Z,28.10
2019-05-25T13:40:57.865Z,28.00
2019-05-25T13:44:02.957Z,27.80
2019-05-25T13:47:08.178Z,27.80
2019-05-25T13:50:14.964Z,27.90
2019-05-25T13:53:19.832Z,27.80
2019-05-25T13:56:24.779Z,27.50
2019-05-25T13:59:30.133Z,27.50
2019-05-25T14:02:35.174Z,27.60
2019-05-25T14:05:40.247Z,27.80
2019-05-25T14:08:44.930Z,27.90
2019-05-25T14:11:49.735Z,28.00
2019-05-25T14:14:54.499Z,28.00
2019-05-25T14:17:59.324Z,27.60
2019-05-25T14:21:04.094Z,27.50
2019-05-25T14:24:08.872Z,27.50
2019-05-25T14:27:13.574Z,27.40
2019-05-25T14:30:19.525Z,27.10
2019-05-25T14:33:24.348Z,26.90
2019-05-25T14:36:29.082Z,26.90
2019-05-25T14:39:34.506Z,27.00
2019-05-25T14:42:39.271Z,26.80
2019-05-25T14:45:43.972Z,26.90
2019-05-25T14:48:48.848Z,26.70
2019-05-25T14:51:53.590Z,26.50
2019-05-25T14:54:58.467Z,26.30
2019-05-25T14:58:03.381Z,26.00
2019-05-25T15:01:08.214Z,25.80
2019-05-25T15:04:12.965Z,25.70
2019-05-25T15:07:18.902Z,25.60
2019-05-25T15:10:23.654Z,25.50
2019-05-25T15:13:28.414Z,25.40
2019-05-25T15:16:33.771Z,25.20
2019-05-25T15:19:38.594Z,25.10
2019-05-25T15:22:46.635Z,24.90
2019-05-25T15:25:50.023Z,24.60
2019-05-25T15:28:54.791Z,24.40
2019-05-25T15:31:59.501Z,24.20
2019-05-25T15:35:04.485Z,24.00
2019-05-25T15:38:09.170Z,23.80
2019-05-25T15:41:13.898Z,23.50
2019-05-25T15:44:18.719Z,23.20
2019-05-25T15:47:23.485Z,23.10
2019-05-25T15:50:28.297Z,22.80
2019-05-25T15:53:33.038Z,22.70
2019-05-25T15:56:37.774Z,22.50
2019-05-25T15:59:42.507Z,22.50
2019-05-25T16:02:47.365Z,22.40
2019-05-25T16:05:52.413Z,22.50
2019-05-25T16:08:57.303Z,22.50
2019-05-25T16:12:02.052Z,22.60
2019-05-25T16:15:07.373Z,22.60
2019-05-25T16:18:14.180Z,22.50
2019-05-25T16:21:19.134Z,22.60
2019-05-25T16:24:24.081Z,22.50
2019-05-25T16:27:29.061Z,22.40
2019-05-25T16:30:33.964Z,22.20
2019-05-25T16:33:39.126Z,22.10
2019-05-25T16:36:44.032Z,22.00
2019-05-25T16:39:49.123Z,21.90
2019-05-25T16:42:54.364Z,21.80
2019-05-25T16:45:59.409Z,21.80
2019-05-25T16:49:05.109Z,21.80
2019-05-25T16:52:10.200Z,21.80
2019-05-25T16:55:15.533Z,22.00
2019-05-25T16:58:20.598Z,22.20
2019-05-25T17:01:25.719Z,22.40
2019-05-25T17:04:30.788Z,22.50
2019-05-25T17:07:35.926Z,22.60
2019-05-25T17:10:41.115Z,22.70
2019-05-25T17:13:46.112Z,22.60
2019-05-25T17:16:52.515Z,22.60
2019-05-25T17:19:57.571Z,22.60
2019-05-25T17:23:03.322Z,22.60
2019-05-25T17:26:08.307Z,22.70
2019-05-25T17:29:13.317Z,22.70
2019-05-25T17:32:18.442Z,22.60
2019-05-25T17:35:23.695Z,22.60
2019-05-25T17:38:28.681Z,22.50
2019-05-25T17:41:34.121Z,22.40
2019-05-25T17:44:39.219Z,22.30
2019-05-25T17:47:44.625Z,22.30
2019-05-25T17:50:49.375Z,22.20
2019-05-25T17:53:54.209Z,22.20
2019-05-25T17:56:58.959Z,22.20
2019-05-25T18:00:04.830Z,22.20
2019-05-25T18:03:09.760Z,22.10
2019-05-25T18:06:14.847Z,22.10
2019-05-25T18:09:19.983Z,21.90
2019-05-25T18:12:24.738Z,21.80
2019-05-25T18:15:33.749Z,21.60
2019-05-25T18:18:38.460Z,21.50
2019-05-25T18:21:43.728Z,21.50
2019-05-25T18:24:48.465Z,21.30
2019-05-25T18:27:53.358Z,21.20
2019-05-25T18:30:58.261Z,21.00
2019-05-25T18:34:03.142Z,20.90
2019-05-25T18:37:07.875Z,20.80
2019-05-25T18:40:13.475Z,20.90
2019-05-25T18:43:18.211Z,20.90
2019-05-25T18:46:23.204Z,20.90
2019-05-25T18:49:27.947Z,20.90
2019-05-25T18:52:32.884Z,20.90
2019-05-25T18:55:37.708Z,20.90
2019-05-25T18:58:42.709Z,21.00
2019-05-25T19:01:47.493Z,21.00
2019-05-25T19:04:59.474Z,20.90
2019-05-25T19:07:59.789Z,20.90
2019-05-25T19:11:04.561Z,20.90
2019-05-25T19:14:09.429Z,20.90
2019-05-25T19:17:14.129Z,20.80
2019-05-25T19:20:21.275Z,20.80
2019-05-25T19:23:25.958Z,20.70
2019-05-25T19:26:30.919Z,20.70
2019-05-25T19:29:35.710Z,20.60
2019-05-25T19:32:40.681Z,20.70
2019-05-25T19:35:47.267Z,20.60
2019-05-25T19:38:52.236Z,20.60
2019-05-25T19:41:57.334Z,20.50
2019-05-25T19:45:02.628Z,20.40
2019-05-25T19:48:07.797Z,20.40
2019-05-25T19:51:12.877Z,20.30
2019-05-25T19:54:18.192Z,20.20
2019-05-25T19:57:23.643Z,20.10
2019-05-25T20:00:30.183Z,20.00
2019-05-25T20:03:35.354Z,19.90
2019-05-25T20:06:40.317Z,19.90
2019-05-25T20:09:45.236Z,19.80
2019-05-25T20:12:50.100Z,19.80
2019-05-25T20:15:54.949Z,19.70
2019-05-25T20:18:59.735Z,19.60
2019-05-25T20:22:04.690Z,19.60
2019-05-25T20:25:11.892Z,19.50
2019-05-25T20:28:17.146Z,19.40
2019-05-25T20:31:22.293Z,19.40
2019-05-25T20:34:27.598Z,19.40
2019-05-25T20:37:33.651Z,19.30
2019-05-25T20:40:38.586Z,19.20
2019-05-25T20:43:44.147Z,19.20
2019-05-25T20:46:49.313Z,19.20
2019-05-25T20:49:55.139Z,19.10
2019-05-25T20:53:00.824Z,19.00
2019-05-25T20:56:05.857Z,19.00
2019-05-25T20:59:11.217Z,19.00
2019-05-25T21:02:16.556Z,18.90
2019-05-25T21:05:21.570Z,18.80
2019-05-25T21:08:26.589Z,18.70
2019-05-25T21:11:31.579Z,18.70
2019-05-25T21:14:36.833Z,18.70
2019-05-25T21:17:42.203Z,18.60
2019-05-25T21:20:48.369Z,18.50
2019-05-25T21:23:53.116Z,18.60
2019-05-25T21:26:57.825Z,18.60
2019-05-25T21:30:02.575Z,18.50
2019-05-25T21:33:07.351Z,18.40
2019-05-25T21:36:12.262Z,18.40
2019-05-25T21:39:18.331Z,18.40
2019-05-25T21:42:23.332Z,18.30
2019-05-25T21:45:28.389Z,18.40
2019-05-25T21:48:33.237Z,18.30
2019-05-25T21:51:38.155Z,18.30
2019-05-25T21:54:43.369Z,18.30
2019-05-25T21:57:48.249Z,18.30
2019-05-25T22:00:53.635Z,18.40
2019-05-25T22:03:58.770Z,18.30
2019-05-25T22:07:03.969Z,18.40
2019-05-25T22:10:10.337Z,18.40
2019-05-25T22:13:27.965Z,18.40
2019-05-25T22:16:23.034Z,18.40
2019-05-25T22:19:28.061Z,18.40
2019-05-25T22:22:33.343Z,18.40
2019-05-25T22:25:38.400Z,18.40
2019-05-25T22:28:45.049Z,18.50
2019-05-25T22:31:50.270Z,18.50
2019-05-25T22:34:55.345Z,18.40
2019-05-25T22:38:01.018Z,18.30
2019-05-25T22:41:08.984Z,18.30
2019-05-25T22:44:13.993Z,18.20
2019-05-25T22:47:18.981Z,18.20
2019-05-25T22:50:26.926Z,18.10
2019-05-25T22:53:31.665Z,17.90
2019-05-25T22:56:36.729Z,18.00
2019-05-25T22:59:41.864Z,18.00
2019-05-25T23:02:46.890Z,18.00
2019-05-25T23:05:52.128Z,17.90
2019-05-25T23:08:57.235Z,17.90
2019-05-25T23:12:02.120Z,17.80
2019-05-25T23:15:07.938Z,17.80
2019-05-25T23:18:12.887Z,17.70
2019-05-25T23:21:17.962Z,17.60
2019-05-25T23:24:22.920Z,17.60
2019-05-25T23:27:28.033Z,17.50
2019-05-25T23:30:33.034Z,17.50
2019-05-25T23:33:38.315Z,17.40
2019-05-25T23:36:43.210Z,17.30
2019-05-25T23:39:48.149Z,17.20
2019-05-25T23:42:53.093Z,17.30
2019-05-25T23:45:58.123Z,17.30
2019-05-25T23:49:03.202Z,17.20
2019-05-25T23:52:08.153Z,17.20
2019-05-25T23:55:14.197Z,17.10
2019-05-25T23:58:19.490Z,17.00
